Time;durP1;ratioP1;P1;durP2;ratioP2;P2;SDS_P1;SDS_P2;PMS_P1;PMS_P2;Temp;Humidity;BMP_temperature;BMP_pressure;BME280_temperature;BME280_humidity;BME280_pressure;Samples;Min_cycle;Max_cycle;Signal;HPM_P1;HPM_P2
2023/01/29 00:01:58;;;;;;;11.82;7.25;;;3.80;99.90;;;;;;4956033;28;20063;-75
2023/01/29 00:04:25;;;;;;;12.50;6.82;;;3.80;99.90;;;;;;4973882;28;20061;-76
2023/01/29 00:06:54;;;;;;;11.60;6.88;;;3.90;99.90;;;;;;4973795;28;20058;-76
2023/01/29 00:09:21;;;;;;;13.75;7.05;;;3.90;99.90;;;;;;4972708;28;20496;-76
2023/01/29 00:11:47;;;;;;;12.57;7.18;;;3.90;99.90;;;;;;4967547;28;20058;-76
2023/01/29 00:14:15;;;;;;;10.75;7.40;;;3.90;99.90;;;;;;4960375;28;20062;-76
2023/01/29 00:16:42;;;;;;;11.38;7.38;;;3.90;99.90;;;;;;4970805;28;20141;-76
2023/01/29 00:19:09;;;;;;;13.40;7.07;;;3.90;99.90;;;;;;4973668;28;20039;-74
2023/01/29 00:21:36;;;;;;;13.13;6.47;;;3.90;99.90;;;;;;4956077;28;20514;-76
2023/01/29 00:24:04;;;;;;;11.10;6.22;;;3.90;99.90;;;;;;4956383;28;20057;-76
2023/01/29 00:26:31;;;;;;;12.43;7.55;;;3.80;99.90;;;;;;4956383;28;20410;-76
2023/01/29 00:28:59;;;;;;;12.88;7.07;;;3.90;99.90;;;;;;4956232;28;20066;-77
2023/01/29 00:31:27;;;;;;;10.93;6.82;;;3.90;99.90;;;;;;4955520;28;20226;-76
2023/01/29 00:33:54;;;;;;;12.10;6.82;;;3.90;99.90;;;;;;4973242;28;20062;-75
2023/01/29 00:36:22;;;;;;;9.52;6.70;;;3.90;99.90;;;;;;4973940;28;20076;-75
2023/01/29 00:38:57;;;;;;;16.00;7.95;;;3.90;99.90;;;;;;4976223;28;20043;-75
2023/01/29 00:46:56;;;;;;;12.13;7.20;;;3.90;99.90;;;;;;4978825;28;20060;-77
2023/01/29 00:49:23;;;;;;;11.80;7.65;;;3.80;99.90;;;;;;4956722;28;20105;-77
2023/01/29 00:54:31;;;;;;;;;;;3.90;99.90;;;;;;4955202;28;20091;-75
2023/01/29 00:56:59;;;;;;;13.48;7.63;;;3.00;99.90;;;;;;4972958;28;19929;-75
2023/01/29 00:59:26;;;;;;;11.50;7.30;;;3.90;99.90;;;;;;4972730;28;20046;-76
2023/01/29 01:04:37;;;;;;;12.02;7.72;;;3.90;99.90;;;;;;4956022;28;20062;-75
2023/01/29 01:07:05;;;;;;;10.05;7.43;;;3.90;99.90;;;;;;4972251;28;20046;-75
2023/01/29 01:12:20;;;;;;;15.25;8.48;;;3.90;99.90;;;;;;4956760;28;20058;-75
2023/01/29 01:14:47;;;;;;;11.57;7.72;;;3.90;99.90;;;;;;4956820;28;20430;-75
2023/01/29 01:17:15;;;;;;;12.35;7.60;;;3.90;99.90;;;;;;4955935;28;20046;-75
2023/01/29 01:19:42;;;;;;;14.13;8.77;;;3.90;99.90;;;;;;4952182;28;20455;-74
2023/01/29 01:22:09;;;;;;;15.45;8.75;;;3.90;99.90;;;;;;4972962;28;20042;-74
2023/01/29 01:24:36;;;;;;;12.48;8.35;;;3.30;99.90;;;;;;4953242;28;20113;-75
2023/01/29 01:27:03;;;;;;;12.85;8.70;;;3.90;99.90;;;;;;4971507;28;20566;-74
2023/01/29 01:29:32;;;;;;;16.65;9.35;;;3.90;99.90;;;;;;4972658;28;20130;-73
2023/01/29 01:31:59;;;;;;;13.20;8.63;;;3.90;99.90;;;;;;4955211;28;20054;-73
2023/01/29 01:34:26;;;;;;;16.50;8.55;;;3.90;99.90;;;;;;4972376;28;20054;-74
2023/01/29 01:36:54;;;;;;;13.10;8.10;;;3.90;99.90;;;;;;4955133;28;20082;-74
2023/01/29 01:39:22;;;;;;;11.10;8.00;;;3.90;99.90;;;;;;4955441;28;20145;-74
2023/01/29 01:41:48;;;;;;;12.07;8.15;;;3.90;99.90;;;;;;4970546;28;20054;-73
2023/01/29 01:44:55;;;;;;;16.70;7.90;;;3.90;99.90;;;;;;4972294;28;20073;-73
2023/01/29 01:47:28;;;;;;;15.05;8.90;;;4.00;99.90;;;;;;4971695;28;20559;-74
2023/01/29 01:49:56;;;;;;;17.45;9.50;;;4.00;99.90;;;;;;4971606;28;20058;-73
2023/01/29 01:52:23;;;;;;;12.00;8.52;;;3.90;99.90;;;;;;4954676;28;20495;-74
2023/01/29 01:54:51;;;;;;;14.98;8.85;;;4.00;99.90;;;;;;4954038;28;20057;-75
2023/01/29 01:57:24;;;;;;;16.42;9.50;;;4.00;99.90;;;;;;4955273;28;20043;-76
2023/01/29 01:59:57;;;;;;;15.15;10.50;;;4.00;99.90;;;;;;4955485;28;20086;-76
2023/01/29 02:10:43;;;;;;;18.23;9.68;;;4.00;99.90;;;;;;4955135;28;20047;-74
2023/01/29 02:13:15;;;;;;;15.50;10.45;;;4.00;99.90;;;;;;4955278;28;20054;-74
2023/01/29 02:15:47;;;;;;;15.95;10.30;;;4.00;99.90;;;;;;4971823;28;20051;-74
2023/01/29 02:18:16;;;;;;;12.50;9.10;;;4.00;99.90;;;;;;4974076;28;20042;-73
2023/01/29 02:20:49;;;;;;;17.90;9.18;;;4.00;99.90;;;;;;4958766;28;20054;-74
2023/01/29 02:23:35;;;;;;;16.63;10.43;;;4.00;99.90;;;;;;4956463;28;20050;-75
2023/01/29 02:26:38;;;;;;;14.25;9.57;;;4.10;99.90;;;;;;4958512;28;20050;-73
2023/01/29 02:29:22;;;;;;;15.32;10.23;;;4.10;99.90;;;;;;4958714;28;20502;-74
2023/01/29 02:32:08;;;;;;;15.73;10.18;;;4.10;99.90;;;;;;4975466;28;20126;-74
2023/01/29 02:37:36;;;;;;;17.42;10.40;;;4.10;99.90;;;;;;4957838;28;20051;-74
2023/01/29 02:40:13;;;;;;;15.43;9.68;;;4.10;99.90;;;;;;4975240;28;20407;-75
2023/01/29 02:42:50;;;;;;;18.67;10.05;;;4.10;99.90;;;;;;4975134;28;20078;-74
2023/01/29 02:45:22;;;;;;;17.95;11.07;;;4.10;99.90;;;;;;4957973;28;20047;-74
2023/01/29 02:47:54;;;;;;;12.55;9.38;;;4.10;99.90;;;;;;4957595;28;20055;-74
2023/01/29 02:50:29;;;;;;;20.45;10.60;;;4.10;99.90;;;;;;4958092;28;20066;-74
2023/01/29 02:53:02;;;;;;;14.60;10.25;;;4.10;99.90;;;;;;4958739;28;20050;-73
2023/01/29 02:55:33;;;;;;;18.25;10.93;;;4.10;99.90;;;;;;4957989;28;20058;-74
2023/01/29 02:58:06;;;;;;;17.77;11.27;;;4.10;99.90;;;;;;4957520;28;20047;-73
2023/01/29 03:00:39;;;;;;;16.65;11.13;;;4.10;99.90;;;;;;4957722;28;20051;-74
2023/01/29 03:03:12;;;;;;;16.10;11.48;;;4.10;99.90;;;;;;4958073;28;20054;-73
2023/01/29 03:05:53;;;;;;;18.20;11.75;;;4.10;99.90;;;;;;4974845;28;20047;-74
2023/01/29 03:08:35;;;;;;;19.75;11.63;;;4.10;99.90;;;;;;4955468;28;20043;-75
2023/01/29 03:11:04;;;;;;;19.23;11.25;;;4.00;99.90;;;;;;4957135;28;20447;-73
2023/01/29 03:13:38;;;;;;;21.67;11.05;;;4.10;99.90;;;;;;4974194;28;20126;-74
2023/01/29 03:16:13;;;;;;;21.10;11.93;;;4.10;99.90;;;;;;4957372;28;20050;-74
2023/01/29 03:18:45;;;;;;;15.32;10.57;;;4.00;99.90;;;;;;4954699;28;20407;-74
2023/01/29 03:32:25;;;;;;;22.42;13.02;;;3.90;99.90;;;;;;4956893;28;20396;-74
2023/01/29 03:34:58;;;;;;;;;;;3.90;99.90;;;;;;4974339;28;20039;-74
2023/01/29 03:37:30;;;;;;;21.15;13.75;;;3.90;99.90;;;;;;4973952;28;19922;-74
2023/01/29 03:39:56;;;;;;;20.10;13.55;;;3.90;99.90;;;;;;4956622;28;20047;-74
2023/01/29 03:42:29;;;;;;;23.38;15.82;;;3.90;99.90;;;;;;4957286;28;20057;-72
2023/01/29 03:45:07;;;;;;;22.70;14.45;;;3.90;99.90;;;;;;4974339;28;20094;-73
2023/01/29 03:47:43;;;;;;;20.95;14.43;;;3.90;99.90;;;;;;4973074;28;20087;-74
2023/01/29 03:50:18;;;;;;;26.58;15.50;;;3.90;99.90;;;;;;4957517;28;20065;-74
2023/01/29 03:52:51;;;;;;;22.70;14.95;;;3.90;99.90;;;;;;4957035;28;20054;-73
2023/01/29 03:55:22;;;;;;;25.58;16.75;;;3.90;99.90;;;;;;4955741;28;20051;-73
2023/01/29 03:57:57;;;;;;;21.27;14.98;;;3.90;99.90;;;;;;4957403;28;20043;-74
2023/01/29 04:00:28;;;;;;;21.10;14.85;;;3.90;99.90;;;;;;4973875;28;20049;-74
2023/01/29 04:03:03;;;;;;;23.05;14.70;;;3.90;99.90;;;;;;4956799;28;20106;-75
2023/01/29 04:05:35;;;;;;;21.60;14.13;;;3.90;99.90;;;;;;4974241;28;20054;-74
2023/01/29 04:08:06;;;;;;;23.63;14.68;;;3.90;99.90;;;;;;4973747;28;20049;-74
2023/01/29 04:10:35;;;;;;;23.65;15.48;;;3.80;99.90;;;;;;4956777;28;20415;-74
2023/01/29 04:13:06;;;;;;;19.60;14.43;;;3.90;99.90;;;;;;4956643;28;20130;-74
2023/01/29 04:15:38;;;;;;;21.42;13.32;;;3.90;99.90;;;;;;4954446;28;20514;-74
2023/01/29 04:18:07;;;;;;;20.15;14.32;;;3.90;99.90;;;;;;4973422;28;20069;-74
2023/01/29 04:20:35;;;;;;;21.38;13.93;;;3.90;99.90;;;;;;4972593;28;20053;-74
2023/01/29 04:23:05;;;;;;;21.17;14.20;;;3.90;99.90;;;;;;4955597;28;20058;-74
2023/01/29 04:25:42;;;;;;;23.38;14.73;;;3.90;99.90;;;;;;4973578;28;20050;-73
2023/01/29 04:28:16;;;;;;;21.33;14.82;;;4.00;99.90;;;;;;4956755;28;20118;-74
2023/01/29 04:30:51;;;;;;;23.23;14.45;;;4.00;99.90;;;;;;4956003;28;20050;-74
2023/01/29 04:33:29;;;;;;;20.73;13.77;;;4.00;99.90;;;;;;4956532;28;20054;-75
2023/01/29 04:36:11;;;;;;;22.55;13.70;;;3.90;99.90;;;;;;4955721;28;20065;-75
2023/01/29 04:38:51;;;;;;;23.00;13.07;;;4.00;99.90;;;;;;4971416;28;20052;-75
2023/01/29 04:41:24;;;;;;;21.40;14.47;;;4.00;99.90;;;;;;4954746;28;20521;-75
2023/01/29 04:44:01;;;;;;;22.40;14.38;;;4.00;99.90;;;;;;4971291;28;20054;-76
2023/01/29 04:46:34;;;;;;;23.13;14.27;;;4.00;99.90;;;;;;4954454;28;20503;-76
2023/01/29 04:49:15;;;;;;;21.58;13.77;;;4.00;99.90;;;;;;4956372;28;20403;-74
2023/01/29 04:51:51;;;;;;;24.33;15.52;;;4.00;99.90;;;;;;4971315;28;20047;-75
2023/01/29 04:54:28;;;;;;;23.20;14.73;;;4.00;99.90;;;;;;4955496;28;20061;-75
2023/01/29 04:57:01;;;;;;;23.42;15.25;;;4.00;99.90;;;;;;4955403;28;20059;-75
2023/01/29 04:59:34;;;;;;;24.40;15.63;;;4.00;99.90;;;;;;4972871;28;20038;-74
2023/01/29 05:02:02;;;;;;;23.30;15.85;;;4.00;99.90;;;;;;4955995;28;20493;-74
2023/01/29 05:04:33;;;;;;;25.02;14.77;;;4.00;99.90;;;;;;4955106;28;20586;-74
2023/01/29 05:07:03;;;;;;;22.83;15.90;;;4.00;99.90;;;;;;4971373;28;20042;-74
2023/01/29 05:09:31;;;;;;;24.20;15.15;;;4.00;99.90;;;;;;4970794;28;20093;-74
2023/01/29 05:12:00;;;;;;;23.73;14.63;;;4.00;99.90;;;;;;4970884;28;20050;-74
2023/01/29 05:14:29;;;;;;;25.98;15.93;;;4.00;99.90;;;;;;4953896;28;20491;-72
2023/01/29 05:16:58;;;;;;;24.55;16.05;;;4.00;99.90;;;;;;4955237;28;20137;-73
2023/01/29 05:19:25;;;;;;;24.27;16.00;;;4.00;99.90;;;;;;4954955;28;20054;-74
2023/01/29 05:21:55;;;;;;;25.60;16.20;;;4.00;99.90;;;;;;4955753;28;20077;-73
2023/01/29 05:24:26;;;;;;;26.92;16.15;;;4.00;99.90;;;;;;4955701;28;20090;-73
2023/01/29 05:29:41;;;;;;;23.50;14.48;;;4.00;99.90;;;;;;4972829;28;20046;-74
2023/01/29 05:32:08;;;;;;;25.45;15.57;;;4.10;99.90;;;;;;4971696;28;20389;-73
2023/01/29 05:34:35;;;;;;;24.35;15.85;;;4.00;99.90;;;;;;4952994;28;20051;-78
2023/01/29 05:37:03;;;;;;;22.88;14.70;;;4.00;99.90;;;;;;4972050;28;20058;-76
2023/01/29 05:39:30;;;;;;;23.67;13.95;;;4.10;99.90;;;;;;4969818;28;20054;-77
2023/01/29 05:41:57;;;;;;;21.98;14.55;;;4.00;99.90;;;;;;4955218;28;20061;-78
2023/01/29 05:44:24;;;;;;;22.25;13.95;;;4.00;99.90;;;;;;4955161;28;20046;-78
2023/01/29 05:46:51;;;;;;;24.42;15.85;;;4.00;99.90;;;;;;4970941;28;20059;-79
2023/01/29 05:49:19;;;;;;;22.60;14.68;;;4.00;99.90;;;;;;4972061;28;20050;-78
2023/01/29 05:51:46;;;;;;;23.67;14.77;;;4.00;99.90;;;;;;4955328;28;20351;-77
2023/01/29 05:54:14;;;;;;;25.15;15.15;;;4.00;99.90;;;;;;4975808;28;20110;-77
2023/01/29 05:56:41;;;;;;;30.40;14.85;;;4.00;99.90;;;;;;4974155;28;20499;-77
2023/01/29 05:59:08;;;;;;;22.45;14.25;;;3.90;99.90;;;;;;4959026;28;20053;-77
2023/01/29 06:01:36;;;;;;;22.33;15.20;;;3.90;99.90;;;;;;4973563;28;20053;-77
2023/01/29 06:04:02;;;;;;;24.67;14.80;;;4.00;99.90;;;;;;4976585;28;20046;-76
2023/01/29 06:06:29;;;;;;;21.92;14.35;;;4.00;99.90;;;;;;4975746;28;20051;-76
2023/01/29 06:08:56;;;;;;;24.85;15.00;;;4.00;99.90;;;;;;4974227;28;20047;-76
2023/01/29 06:11:25;;;;;;;22.35;14.25;;;3.90;99.90;;;;;;4975926;28;20407;-75
2023/01/29 06:13:52;;;;;;;23.02;14.07;;;3.90;99.90;;;;;;4975906;28;20049;-75
2023/01/29 06:16:19;;;;;;;20.70;14.13;;;4.00;99.90;;;;;;4958058;28;20063;-76
2023/01/29 06:18:46;;;;;;;27.45;14.38;;;4.00;99.90;;;;;;4958942;28;20043;-77
2023/01/29 06:21:14;;;;;;;22.23;14.98;;;4.00;99.90;;;;;;4958633;28;20046;-74
2023/01/29 06:23:41;;;;;;;25.67;15.15;;;4.00;99.90;;;;;;4974636;28;20054;-73
2023/01/29 06:26:10;;;;;;;27.35;16.48;;;4.00;99.90;;;;;;4975441;28;20054;-74
2023/01/29 06:28:39;;;;;;;27.58;17.30;;;4.00;99.90;;;;;;4957521;28;20059;-72
2023/01/29 06:31:07;;;;;;;27.20;17.77;;;4.00;99.90;;;;;;4957425;28;20518;-74
2023/01/29 06:33:34;;;;;;;29.85;18.15;;;4.00;99.90;;;;;;4963529;28;20055;-73
2023/01/29 06:36:03;;;;;;;30.15;19.35;;;4.00;99.90;;;;;;4939435;28;20043;-73
2023/01/29 06:38:31;;;;;;;28.20;18.75;;;4.00;99.90;;;;;;4939781;28;20047;-73
2023/01/29 06:40:58;;;;;;;32.13;19.05;;;4.00;99.90;;;;;;4939254;29;20047;-73
2023/01/29 06:43:25;;;;;;;33.13;20.25;;;4.00;99.90;;;;;;4955087;28;20051;-73
2023/01/29 06:45:55;;;;;;;31.20;19.50;;;4.00;99.90;;;;;;4957037;28;20047;-73
2023/01/29 06:48:23;;;;;;;31.77;20.77;;;4.00;99.90;;;;;;4940069;28;20051;-74
2023/01/29 06:50:50;;;;;;;29.80;21.00;;;3.90;99.90;;;;;;4939178;29;20051;-72
2023/01/29 06:53:18;;;;;;;34.58;21.10;;;3.90;99.90;;;;;;4956908;28;20061;-72
2023/01/29 06:55:51;;;;;;;32.85;22.23;;;3.90;99.90;;;;;;4939540;28;20047;-75
2023/01/29 06:58:18;;;;;;;40.88;22.75;;;3.90;99.90;;;;;;4956227;28;20051;-73
2023/01/29 07:00:45;;;;;;;34.15;22.17;;;4.00;99.90;;;;;;4952497;28;20042;-74
2023/01/29 07:03:13;;;;;;;32.05;20.02;;;4.00;99.90;;;;;;4957623;28;20507;-74
2023/01/29 07:05:40;;;;;;;32.05;20.27;;;4.00;99.90;;;;;;4956150;28;20504;-74
2023/01/29 07:08:08;;;;;;;30.92;19.63;;;4.00;99.90;;;;;;4975156;28;20411;-74
2023/01/29 07:10:35;;;;;;;34.28;22.73;;;4.00;99.90;;;;;;4974361;28;20047;-75
2023/01/29 07:13:02;;;;;;;34.92;19.08;;;4.00;99.90;;;;;;4957566;28;20047;-75
2023/01/29 07:15:29;;;;;;;30.42;19.63;;;4.00;99.90;;;;;;4954602;28;20051;-74
2023/01/29 07:17:57;;;;;;;28.58;18.55;;;4.00;99.90;;;;;;4938951;28;20044;-75
2023/01/29 07:20:27;;;;;;;30.60;18.92;;;4.00;99.90;;;;;;4955412;28;20062;-76
2023/01/29 07:22:54;;;;;;;29.98;19.08;;;4.00;99.90;;;;;;4974515;28;20118;-75
2023/01/29 07:25:22;;;;;;;31.67;18.85;;;4.00;99.90;;;;;;4947322;28;20071;-74
2023/01/29 07:27:48;;;;;;;28.30;19.70;;;4.00;99.90;;;;;;4974452;28;20047;-75
2023/01/29 07:30:16;;;;;;;28.95;17.67;;;4.00;99.90;;;;;;4957653;28;20160;-72
2023/01/29 07:32:43;;;;;;;29.38;18.15;;;4.00;99.90;;;;;;4974033;28;20050;-73
2023/01/29 07:35:10;;;;;;;35.67;21.25;;;4.10;99.90;;;;;;4957423;28;20090;-72
2023/01/29 07:37:39;;;;;;;35.28;19.77;;;4.00;99.90;;;;;;4974404;28;20054;-72
2023/01/29 07:40:10;;;;;;;34.50;20.80;;;4.00;99.90;;;;;;4956828;28;20051;-72
2023/01/29 07:42:37;;;;;;;;;;;4.00;99.90;;;;;;4973222;28;20053;-71
2023/01/29 07:45:04;;;;;;;31.52;21.08;;;4.00;99.90;;;;;;4956863;28;20588;-71
2023/01/29 07:47:31;;;;;;;35.72;21.38;;;4.00;99.90;;;;;;4956568;28;20051;-72
2023/01/29 07:49:58;;;;;;;31.10;21.45;;;4.00;99.90;;;;;;4974030;28;20038;-73
2023/01/29 07:52:25;;;;;;;32.50;22.70;;;4.00;99.90;;;;;;4973952;28;20054;-74
2023/01/29 07:54:53;;;;;;;32.42;22.30;;;4.00;99.90;;;;;;4955909;28;20059;-73
2023/01/29 07:57:20;;;;;;;36.35;23.10;;;3.90;99.90;;;;;;4973909;28;20074;-74
2023/01/29 07:59:47;;;;;;;35.60;21.95;;;4.00;99.90;;;;;;4968155;28;20054;-73
2023/01/29 08:02:14;;;;;;;35.67;22.73;;;4.00;99.90;;;;;;4954144;28;20054;-73
2023/01/29 08:04:41;;;;;;;35.85;21.83;;;4.00;99.90;;;;;;4965615;28;20054;-73
2023/01/29 08:07:08;;;;;;;34.80;21.35;;;4.00;99.90;;;;;;4955295;28;20054;-73
2023/01/29 08:09:35;;;;;;;35.17;23.65;;;4.00;99.90;;;;;;4962013;28;20456;-73
2023/01/29 08:12:04;;;;;;;36.67;23.10;;;4.00;99.90;;;;;;4966795;28;20070;-74
2023/01/29 08:14:31;;;;;;;33.80;22.38;;;4.00;99.90;;;;;;4953517;28;20051;-73
2023/01/29 08:16:58;;;;;;;34.30;22.88;;;4.00;99.90;;;;;;4953291;28;20050;-72
2023/01/29 08:19:24;;;;;;;35.53;23.70;;;4.10;99.90;;;;;;4948103;28;20081;-72
2023/01/29 08:21:51;;;;;;;36.17;24.77;;;4.10;99.90;;;;;;4974137;28;20054;-72
2023/01/29 08:24:18;;;;;;;33.83;22.27;;;4.10;99.90;;;;;;4951225;28;20058;-72
2023/01/29 08:26:45;;;;;;;34.83;23.85;;;4.10;99.90;;;;;;4972035;28;20059;-71
2023/01/29 08:29:14;;;;;;;37.33;23.55;;;4.00;99.90;;;;;;4954547;28;20062;-73
2023/01/29 08:31:41;;;;;;;39.78;24.67;;;4.00;99.90;;;;;;4968432;28;20051;-72
2023/01/29 08:34:08;;;;;;;32.50;22.80;;;4.00;99.90;;;;;;4953300;28;20055;-72
2023/01/29 08:36:35;;;;;;;35.53;25.17;;;4.10;99.90;;;;;;4951637;28;20058;-72
2023/01/29 08:39:02;;;;;;;37.35;22.67;;;4.10;99.90;;;;;;4952531;28;20058;-73
2023/01/29 08:41:29;;;;;;;39.67;23.60;;;4.10;99.90;;;;;;4952285;28;20109;-73
2023/01/29 08:43:56;;;;;;;33.78;23.35;;;4.10;99.90;;;;;;4952018;28;20411;-72
2023/01/29 08:46:24;;;;;;;36.35;26.08;;;4.10;99.90;;;;;;4969957;28;20051;-74
2023/01/29 08:48:51;;;;;;;40.97;22.65;;;4.10;99.90;;;;;;4952678;28;20049;-73
2023/01/29 08:51:18;;;;;;;33.08;23.85;;;4.10;99.90;;;;;;4952887;28;20483;-73
2023/01/29 08:53:45;;;;;;;37.83;24.70;;;4.10;99.90;;;;;;4972029;28;20842;-73
2023/01/29 08:56:12;;;;;;;37.58;23.45;;;4.10;99.90;;;;;;4958724;28;20096;-73
2023/01/29 08:58:39;;;;;;;34.05;23.15;;;4.10;99.90;;;;;;4953710;28;20054;-73
2023/01/29 09:01:07;;;;;;;34.90;23.52;;;4.20;99.90;;;;;;4975104;28;20435;-74
2023/01/29 09:03:35;;;;;;;37.97;24.33;;;4.10;99.90;;;;;;4954036;28;20491;-73
2023/01/29 09:06:02;;;;;;;35.00;23.13;;;4.20;99.90;;;;;;4970106;28;20054;-74
2023/01/29 09:08:29;;;;;;;37.58;23.90;;;4.20;99.90;;;;;;4971963;28;20050;-75
2023/01/29 09:10:58;;;;;;;41.15;24.30;;;4.20;99.90;;;;;;4960527;28;20043;-72
2023/01/29 09:13:25;;;;;;;32.45;22.52;;;4.30;99.90;;;;;;4953015;28;20130;-72
2023/01/29 09:15:53;;;;;;;33.20;24.02;;;4.30;99.90;;;;;;4969342;28;20051;-73
2023/01/29 09:18:20;;;;;;;35.63;23.55;;;4.30;99.90;;;;;;4969627;28;20439;-72
2023/01/29 09:20:49;;;;;;;34.58;23.17;;;4.30;99.90;;;;;;4973309;28;20105;-73
2023/01/29 09:23:15;;;;;;;41.25;23.15;;;4.30;99.90;;;;;;4953354;28;20515;-73
2023/01/29 09:25:43;;;;;;;32.42;21.85;;;4.30;99.90;;;;;;4956521;28;20090;-72
2023/01/29 09:28:10;;;;;;;33.80;22.40;;;4.40;99.90;;;;;;4957683;28;20046;-73
2023/01/29 09:30:37;;;;;;;37.72;21.35;;;4.50;99.90;;;;;;4968641;28;20543;-72
2023/01/29 09:33:04;;;;;;;33.20;21.58;;;4.50;99.90;;;;;;4959314;28;20082;-73
2023/01/29 09:35:31;;;;;;;33.58;22.02;;;4.50;99.90;;;;;;4959689;28;20059;-74
2023/01/29 09:37:59;;;;;;;34.53;22.05;;;4.60;99.90;;;;;;4980926;28;20062;-73
2023/01/29 09:40:32;;;;;;;35.35;23.00;;;4.50;99.90;;;;;;4977439;28;20047;-74
2023/01/29 09:43:03;;;;;;;34.22;20.77;;;4.60;99.90;;;;;;4962116;28;20046;-72
2023/01/29 09:45:31;;;;;;;34.80;22.40;;;4.60;99.90;;;;;;4965986;28;20411;-74
2023/01/29 09:48:02;;;;;;;33.35;21.42;;;4.60;99.90;;;;;;4979239;28;20043;-73
2023/01/29 09:50:37;;;;;;;33.90;21.20;;;4.70;99.90;;;;;;4979148;28;20398;-72
2023/01/29 09:53:16;;;;;;;37.40;23.25;;;4.70;99.90;;;;;;4975309;28;20059;-73
2023/01/29 09:55:48;;;;;;;38.47;22.13;;;4.70;99.90;;;;;;4956689;28;20066;-73
2023/01/29 09:58:21;;;;;;;34.78;22.58;;;4.70;99.90;;;;;;4959153;28;20055;-74
2023/01/29 10:00:57;;;;;;;33.67;20.60;;;4.70;99.90;;;;;;4955608;28;20050;-73
2023/01/29 10:03:49;;;;;;;33.47;20.83;;;4.70;99.90;;;;;;4960835;28;20066;-73
2023/01/29 10:06:25;;;;;;;31.15;20.20;;;4.70;99.90;;;;;;4958474;28;20054;-71
2023/01/29 10:09:22;;;;;;;35.95;22.77;;;4.70;99.90;;;;;;4976740;28;20549;-72
2023/01/29 10:12:00;;;;;;;32.50;22.13;;;4.70;99.90;;;;;;4959633;28;20053;-73
2023/01/29 10:14:40;;;;;;;35.33;22.95;;;4.60;99.90;;;;;;4958821;28;20475;-75
2023/01/29 10:17:19;;;;;;;37.50;23.48;;;4.60;99.90;;;;;;4979001;28;20046;-73
2023/01/29 10:20:03;;;;;;;42.92;24.05;;;4.60;99.90;;;;;;4965387;28;20062;-72
2023/01/29 10:22:47;;;;;;;38.20;21.95;;;4.60;99.90;;;;;;4962661;28;20498;-74
2023/01/29 10:25:18;;;;;;;39.65;23.92;;;4.50;99.90;;;;;;4959253;28;20047;-72
2023/01/29 10:27:50;;;;;;;42.83;24.85;;;4.50;99.90;;;;;;4959817;28;20081;-72
2023/01/29 10:30:26;;;;;;;40.08;24.80;;;4.60;99.90;;;;;;4971255;28;20063;-73
2023/01/29 10:32:54;;;;;;;35.80;22.88;;;4.60;99.90;;;;;;4979426;28;20058;-73
2023/01/29 10:35:24;;;;;;;37.53;23.90;;;4.70;99.90;;;;;;4977979;28;20059;-74
2023/01/29 10:37:54;;;;;;;39.28;24.88;;;4.70;99.90;;;;;;4958045;28;20046;-74
2023/01/29 10:40:27;;;;;;;35.65;24.45;;;4.80;99.90;;;;;;4957802;28;20046;-75
2023/01/29 10:43:01;;;;;;;34.03;22.15;;;4.70;99.90;;;;;;4959417;28;20059;-74
2023/01/29 10:45:37;;;;;;;40.33;23.10;;;4.70;99.90;;;;;;4971505;28;20062;-74
2023/01/29 10:48:33;;;;;;;37.85;22.38;;;4.70;99.90;;;;;;4978253;28;20054;-71
2023/01/29 10:51:10;;;;;;;36.83;22.50;;;4.70;99.90;;;;;;4955726;28;20046;-73
2023/01/29 10:53:52;;;;;;;41.22;22.65;;;4.70;99.90;;;;;;4974385;28;20047;-74
2023/01/29 10:56:45;;;;;;;37.33;23.25;;;4.70;99.90;;;;;;4953156;28;20066;-75
2023/01/29 10:59:27;;;;;;;36.17;24.23;;;4.80;99.90;;;;;;4956330;28;20058;-73
2023/01/29 11:01:58;;;;;;;36.25;22.60;;;4.70;99.90;;;;;;4973077;28;20056;-73
2023/01/29 11:04:28;;;;;;;36.35;23.65;;;4.70;99.90;;;;;;4973245;28;20539;-74
2023/01/29 11:06:54;;;;;;;35.90;21.50;;;4.70;99.90;;;;;;4968564;28;20051;-72
2023/01/29 11:09:30;;;;;;;34.42;21.63;;;4.70;99.90;;;;;;4953941;28;20051;-74
2023/01/29 11:12:02;;;;;;;39.33;23.38;;;4.70;99.90;;;;;;4954169;28;20051;-75
2023/01/29 11:14:33;;;;;;;39.47;24.15;;;4.70;99.90;;;;;;4969808;28;20043;-76
2023/01/29 11:17:00;;;;;;;40.00;24.17;;;4.70;99.90;;;;;;4957858;28;20049;-74
2023/01/29 11:19:37;;;;;;;38.55;23.92;;;4.70;99.90;;;;;;4972978;28;20047;-74
2023/01/29 11:22:08;;;;;;;39.78;24.90;;;4.80;99.90;;;;;;4970624;28;20506;-73
2023/01/29 11:24:34;;;;;;;39.17;25.05;;;4.80;99.90;;;;;;4974034;28;20050;-74
2023/01/29 11:27:15;;;;;;;35.58;22.05;;;4.80;99.90;;;;;;4973305;28;20050;-72
2023/01/29 11:29:44;;;;;;;46.08;25.35;;;4.80;99.90;;;;;;4971572;28;20051;-73
2023/01/29 11:32:15;;;;;;;38.33;23.17;;;4.80;99.90;;;;;;4966740;28;20065;-73
2023/01/29 11:34:59;;;;;;;35.15;22.08;;;4.80;99.90;;;;;;4955490;28;20513;-75
2023/01/29 11:37:34;;;;;;;40.72;23.33;;;4.80;99.90;;;;;;4972472;28;20062;-75
2023/01/29 11:40:01;;;;;;;42.00;23.60;;;4.80;99.90;;;;;;4972991;28;20499;-75
2023/01/29 11:42:32;;;;;;;40.65;24.48;;;4.80;99.90;;;;;;4971376;28;20058;-72
2023/01/29 11:45:00;;;;;;;40.55;24.60;;;4.80;99.90;;;;;;4953868;28;20042;-74
2023/01/29 11:47:28;;;;;;;41.95;24.40;;;4.80;99.90;;;;;;4959319;28;20050;-72
2023/01/29 11:49:57;;;;;;;42.42;23.45;;;4.70;99.90;;;;;;4968889;28;20090;-74
2023/01/29 11:52:26;;;;;;;42.65;24.00;;;4.80;99.90;;;;;;4968487;28;20063;-73
2023/01/29 11:54:57;;;;;;;42.70;22.98;;;4.80;99.90;;;;;;4970292;28;20054;-71
2023/01/29 11:57:30;;;;;;;36.72;22.88;;;4.80;99.90;;;;;;4950895;28;20051;-72
2023/01/29 12:00:01;;;;;;;28.88;19.10;;;4.90;99.90;;;;;;4953259;28;20046;-73
2023/01/29 12:02:34;;;;;;;32.92;21.23;;;5.00;99.90;;;;;;4975365;28;20046;-73
2023/01/29 12:05:05;;;;;;;31.38;21.10;;;5.00;99.90;;;;;;4951735;28;21278;-72
2023/01/29 12:07:33;;;;;;;29.55;20.42;;;5.10;99.90;;;;;;4954733;28;20050;-74
2023/01/29 12:10:01;;;;;;;30.52;21.17;;;5.10;99.90;;;;;;4954233;28;20050;-72
2023/01/29 12:12:36;;;;;;;35.53;22.00;;;5.10;99.90;;;;;;4973488;28;20046;-72
2023/01/29 12:15:15;;;;;;;31.90;21.08;;;5.10;99.90;;;;;;4972596;28;20129;-68
2023/01/29 12:17:45;;;;;;;32.63;19.75;;;5.10;99.90;;;;;;4965209;28;20046;-67
2023/01/29 12:20:17;;;;;;;31.10;19.15;;;5.10;99.90;;;;;;4970927;28;20507;-65
2023/01/29 12:22:51;;;;;;;28.23;18.92;;;5.20;99.90;;;;;;4952512;28;20454;-65
2023/01/29 12:25:23;;;;;;;29.42;18.35;;;5.00;99.90;;;;;;4953507;28;20109;-66
2023/01/29 12:27:57;;;;;;;32.40;18.63;;;5.10;99.90;;;;;;4959175;28;20507;-65
2023/01/29 12:30:30;;;;;;;32.55;18.75;;;5.10;99.90;;;;;;4969299;28;20066;-65
2023/01/29 12:33:03;;;;;;;31.95;17.83;;;5.20;99.90;;;;;;4971447;28;20098;-65
2023/01/29 12:35:35;;;;;;;26.45;16.50;;;5.20;99.90;;;;;;4969742;28;20054;-64
2023/01/29 12:38:06;;;;;;;24.25;16.55;;;5.20;99.90;;;;;;4975547;28;20050;-65
2023/01/29 12:40:38;;;;;;;23.33;16.05;;;5.20;99.90;;;;;;4951739;28;20085;-64
2023/01/29 12:43:14;;;;;;;25.30;16.55;;;5.40;99.90;;;;;;4964466;28;20051;-65
2023/01/29 12:45:43;;;;;;;24.70;15.40;;;5.30;99.90;;;;;;4969053;28;20578;-65
2023/01/29 12:48:13;;;;;;;26.00;16.45;;;5.40;99.90;;;;;;4971672;28;20047;-65
2023/01/29 12:50:41;;;;;;;23.65;16.20;;;5.30;99.90;;;;;;4966559;28;20102;-65
2023/01/29 12:53:26;;;;;;;26.23;15.48;;;5.30;99.90;;;;;;4951820;28;20123;-65
2023/01/29 12:55:56;;;;;;;25.13;16.75;;;5.30;99.90;;;;;;4966086;28;20047;-64
2023/01/29 12:58:30;;;;;;;23.38;15.23;;;5.30;99.90;;;;;;4972701;28;20118;-66
2023/01/29 13:01:03;;;;;;;30.42;16.20;;;5.30;99.90;;;;;;4977864;28;20415;-66
2023/01/29 13:03:35;;;;;;;28.67;16.33;;;5.40;99.90;;;;;;4951321;28;20051;-66
2023/01/29 13:06:07;;;;;;;23.80;14.25;;;5.30;99.90;;;;;;4969216;28;20114;-65
2023/01/29 13:08:38;;;;;;;24.27;14.63;;;5.30;99.90;;;;;;4953084;28;20642;-65
2023/01/29 13:11:08;;;;;;;;;;;5.30;99.90;;;;;;4954198;28;20508;-64
2023/01/29 13:13:42;;;;;;;27.00;15.55;;;5.30;99.90;;;;;;4973065;28;20331;-64
2023/01/29 13:16:14;;;;;;;24.13;15.55;;;5.30;99.90;;;;;;4961159;28;20047;-65
2023/01/29 13:18:45;;;;;;;23.25;14.55;;;5.20;99.90;;;;;;4951470;28;20133;-65
2023/01/29 13:21:15;;;;;;;24.83;14.75;;;5.20;99.90;;;;;;4972924;28;20054;-66
2023/01/29 13:23:45;;;;;;;20.65;13.63;;;5.20;99.90;;;;;;4953447;28;20050;-65
2023/01/29 13:26:13;;;;;;;24.02;16.33;;;5.20;99.90;;;;;;4973823;28;20051;-65
2023/01/29 13:28:45;;;;;;;22.55;14.27;;;5.30;99.90;;;;;;4953216;28;20046;-65
2023/01/29 13:31:21;;;;;;;20.83;14.43;;;5.30;99.90;;;;;;4971087;28;20051;-63
2023/01/29 13:33:53;;;;;;;22.27;15.80;;;5.40;99.90;;;;;;4951341;28;20046;-64
2023/01/29 13:36:27;;;;;;;24.20;14.45;;;5.30;99.90;;;;;;4974025;28;20055;-66
2023/01/29 13:39:00;;;;;;;21.48;13.02;;;5.30;99.90;;;;;;4972112;28;20054;-66